sensor_id;sensor_type;location;lat;lon;timestamp;pressure;altitude;pressure_sealevel;temperature;humidity
23805;BME280;12083;52.098;7.582;2022-11-06T08:58:58;100973.53;;;9.97;100.00
23805;BME280;12083;52.098;7.582;2022-11-06T09:01:24;100976.84;;;10.09;100.00
23805;BME280;12083;52.098;7.582;2022-11-06T09:03:49;100977.53;;;10.21;100.00
23805;BME280;12083;52.098;7.582;2022-11-06T09:06:15;100975.50;;;10.35;100.00
23805;BME280;12083;52.098;7.582;2022-11-06T09:08:41;100967.38;;;10.47;100.00
23805;BME280;12083;52.098;7.582;2022-11-06T09:11:07;100975.03;;;10.60;100.00
23805;BME280;12083;52.098;7.582;2022-11-06T09:13:35;100967.72;;;10.74;100.00
23805;BME280;12083;52.098;7.582;2022-11-06T09:16:00;100962.22;;;10.86;100.00
23805;BME280;12083;52.098;7.582;2022-11-06T09:18:26;100958.47;;;10.97;100.00
23805;BME280;12083;52.098;7.582;2022-11-06T09:20:55;100952.00;;;11.12;100.00
23805;BME280;12083;52.098;7.582;2022-11-06T09:23:22;100949.06;;;11.26;99.80
23805;BME280;12083;52.098;7.582;2022-11-06T09:25:47;100955.72;;;11.40;99.44
23805;BME280;12083;52.098;7.582;2022-11-06T09:28:13;100947.47;;;11.56;99.07
23805;BME280;12083;52.098;7.582;2022-11-06T09:30:39;100938.31;;;11.73;98.36
23805;BME280;12083;52.098;7.582;2022-11-06T09:33:04;100936.97;;;11.91;97.54
23805;BME280;12083;52.098;7.582;2022-11-06T09:35:32;100925.03;;;12.10;96.92
23805;BME280;12083;52.098;7.582;2022-11-06T09:38:06;100931.44;;;12.32;96.32
23805;BME280;12083;52.098;7.582;2022-11-06T09:43:16;100918.00;;;12.72;94.43
23805;BME280;12083;52.098;7.582;2022-11-06T09:45:45;100919.22;;;12.90;93.42
23805;BME280;12083;52.098;7.582;2022-11-06T09:48:24;100921.31;;;13.08;92.63
23805;BME280;12083;52.098;7.582;2022-11-06T09:51:02;100918.13;;;13.26;91.91
23805;BME280;12083;52.098;7.582;2022-11-06T09:53:42;100910.63;;;13.41;91.12
23805;BME280;12083;52.098;7.582;2022-11-06T09:56:13;100908.41;;;13.55;90.73
23805;BME280;12083;52.098;7.582;2022-11-06T09:58:41;100898.34;;;13.66;90.22
23805;BME280;12083;52.098;7.582;2022-11-06T10:01:18;100904.09;;;13.78;89.20
23805;BME280;12083;52.098;7.582;2022-11-06T10:04:01;100904.63;;;13.88;87.73
23805;BME280;12083;52.098;7.582;2022-11-06T10:06:29;100902.69;;;13.93;87.37
23805;BME280;12083;52.098;7.582;2022-11-06T10:09:02;100892.75;;;14.00;86.76
23805;BME280;12083;52.098;7.582;2022-11-06T10:14:30;100884.25;;;14.16;85.70
23805;BME280;12083;52.098;7.582;2022-11-06T10:17:12;100888.44;;;14.22;85.33
23805;BME280;12083;52.098;7.582;2022-11-06T10:20:07;100882.94;;;14.28;84.46
23805;BME280;12083;52.098;7.582;2022-11-06T10:22:39;100882.78;;;14.32;84.81
23805;BME280;12083;52.098;7.582;2022-11-06T10:25:20;100888.78;;;14.38;84.16
23805;BME280;12083;52.098;7.582;2022-11-06T10:28:10;100883.38;;;14.41;84.04
23805;BME280;12083;52.098;7.582;2022-11-06T10:30:56;100878.91;;;14.43;84.33
23805;BME280;12083;52.098;7.582;2022-11-06T10:33:51;100878.88;;;14.44;84.27
23805;BME280;12083;52.098;7.582;2022-11-06T10:36:25;100878.88;;;14.44;83.45
23805;BME280;12083;52.098;7.582;2022-11-06T10:38:54;100884.03;;;14.47;84.05
23805;BME280;12083;52.098;7.582;2022-11-06T10:41:23;100881.38;;;14.47;83.11
23805;BME280;12083;52.098;7.582;2022-11-06T10:44:01;100869.13;;;14.45;82.62
23805;BME280;12083;52.098;7.582;2022-11-06T10:46:45;100879.69;;;14.45;82.68
23805;BME280;12083;52.098;7.582;2022-11-06T10:49:24;100870.84;;;14.46;82.68
23805;BME280;12083;52.098;7.582;2022-11-06T10:57:48;100854.78;;;14.52;82.58
23805;BME280;12083;52.098;7.582;2022-11-06T11:00:17;100849.25;;;14.58;82.43
23805;BME280;12083;52.098;7.582;2022-11-06T11:02:55;100843.72;;;14.64;82.13
23805;BME280;12083;52.098;7.582;2022-11-06T11:05:23;100847.78;;;14.72;82.27
23805;BME280;12083;52.098;7.582;2022-11-06T11:07:50;100844.84;;;14.80;81.65
23805;BME280;12083;52.098;7.582;2022-11-06T11:12:56;100846.00;;;14.95;80.24
23805;BME280;12083;52.098;7.582;2022-11-06T11:15:26;100827.44;;;14.96;79.06
23805;BME280;12083;52.098;7.582;2022-11-06T11:20:42;100811.31;;;15.02;78.80
23805;BME280;12083;52.098;7.582;2022-11-06T11:23:15;100803.94;;;15.10;78.21
23805;BME280;12083;52.098;7.582;2022-11-06T11:25:43;100793.66;;;15.24;77.71
23805;BME280;12083;52.098;7.582;2022-11-06T11:28:21;100785.25;;;15.35;77.60
23805;BME280;12083;52.098;7.582;2022-11-06T11:33:24;100784.09;;;15.62;77.20
23805;BME280;12083;52.098;7.582;2022-11-06T11:35:52;100776.97;;;16.22;76.95
23805;BME280;12083;52.098;7.582;2022-11-06T11:38:18;100767.19;;;17.14;75.19
23805;BME280;12083;52.098;7.582;2022-11-06T11:40:46;100758.88;;;18.22;73.93
23805;BME280;12083;52.098;7.582;2022-11-06T11:43:28;100750.97;;;19.29;69.22
23805;BME280;12083;52.098;7.582;2022-11-06T11:48:53;100753.34;;;19.49;63.78
23805;BME280;12083;52.098;7.582;2022-11-06T11:51:45;100749.03;;;19.17;64.18
23805;BME280;12083;52.098;7.582;2022-11-06T12:02:35;100717.97;;;19.61;62.19
23805;BME280;12083;52.098;7.582;2022-11-06T12:05:20;100716.81;;;19.65;61.11
23805;BME280;12083;52.098;7.582;2022-11-06T12:07:50;100705.47;;;19.76;60.47
23805;BME280;12083;52.098;7.582;2022-11-06T12:10:34;100698.63;;;19.86;59.31
23805;BME280;12083;52.098;7.582;2022-11-06T12:13:06;100697.97;;;19.68;59.05
23805;BME280;12083;52.098;7.582;2022-11-06T12:15:57;100683.56;;;19.42;59.29
23805;BME280;12083;52.098;7.582;2022-11-06T12:18:34;100682.25;;;19.20;59.96
23805;BME280;12083;52.098;7.582;2022-11-06T12:23:56;100672.94;;;18.53;59.87
23805;BME280;12083;52.098;7.582;2022-11-06T12:29:21;100666.03;;;17.86;61.33
23805;BME280;12083;52.098;7.582;2022-11-06T12:32:07;100675.72;;;17.54;61.84
23805;BME280;12083;52.098;7.582;2022-11-06T12:53:46;100637.84;;;15.95;66.78
23805;BME280;12083;52.098;7.582;2022-11-06T12:56:21;100632.09;;;15.85;66.84
23805;BME280;12083;52.098;7.582;2022-11-06T12:59:08;100622.94;;;15.73;67.35
23805;BME280;12083;52.098;7.582;2022-11-06T13:01:53;100625.28;;;15.61;67.54
23805;BME280;12083;52.098;7.582;2022-11-06T13:09:46;100602.69;;;15.34;68.78
23805;BME280;12083;52.098;7.582;2022-11-06T13:12:22;100595.03;;;15.27;68.96
23805;BME280;12083;52.098;7.582;2022-11-06T13:17:33;100573.34;;;15.19;69.18
23805;BME280;12083;52.098;7.582;2022-11-06T13:20:12;100567.28;;;15.17;69.10
23805;BME280;12083;52.098;7.582;2022-11-06T13:25:22;100562.91;;;15.16;69.12
23805;BME280;12083;52.098;7.582;2022-11-06T13:27:58;100558.47;;;15.17;69.10
23805;BME280;12083;52.098;7.582;2022-11-06T13:30:26;100552.31;;;15.16;69.26
23805;BME280;12083;52.098;7.582;2022-11-06T13:35:46;100553.09;;;15.18;69.29
23805;BME280;12083;52.098;7.582;2022-11-06T13:38:16;100562.63;;;15.22;69.07
23805;BME280;12083;52.098;7.582;2022-11-06T13:40:45;100562.47;;;15.25;69.10
23805;BME280;12083;52.098;7.582;2022-11-06T13:43:19;100571.22;;;15.27;68.68
23805;BME280;12083;52.098;7.582;2022-11-06T13:48:37;100572.94;;;15.29;67.03
23805;BME280;12083;52.098;7.582;2022-11-06T13:51:23;100573.06;;;15.25;65.88
23805;BME280;12083;52.098;7.582;2022-11-06T13:54:00;100576.72;;;15.23;66.01
23805;BME280;12083;52.098;7.582;2022-11-06T13:56:43;100578.63;;;15.19;64.81
23805;BME280;12083;52.098;7.582;2022-11-06T14:07:16;100579.31;;;15.04;64.23
23805;BME280;12083;52.098;7.582;2022-11-06T14:09:44;100572.44;;;15.00;64.42
23805;BME280;12083;52.098;7.582;2022-11-06T14:12:18;100565.56;;;14.96;64.13
23805;BME280;12083;52.098;7.582;2022-11-06T14:14:44;100565.78;;;14.92;64.27
23805;BME280;12083;52.098;7.582;2022-11-06T14:20:00;100555.53;;;14.84;63.83
23805;BME280;12083;52.098;7.582;2022-11-06T14:22:35;100567.97;;;14.82;64.10
23805;BME280;12083;52.098;7.582;2022-11-06T14:32:54;100565.78;;;14.71;63.98
23805;BME280;12083;52.098;7.582;2022-11-06T14:40:36;100557.59;;;14.57;62.72
